createdAt,value
2022-08-31T00:04:20.391Z,52.71484
2022-08-31T00:09:19.765Z,52.58105
2022-08-31T00:14:19.795Z,52.58203
2022-08-31T00:19:20.207Z,52.67285
2022-08-31T00:24:19.648Z,52.69727
2022-08-31T00:29:19.839Z,52.77539
2022-08-31T00:34:22.764Z,52.69727
2022-08-31T00:39:22.159Z,53.02441
2022-08-31T00:44:25.256Z,53.13477
2022-08-31T00:49:21.198Z,52.83105
2022-08-31T00:54:21.437Z,52.95508
2022-08-31T00:59:26.115Z,52.99902
2022-08-31T01:04:20.151Z,53.18066
2022-08-31T01:09:20.110Z,53.08984
2022-08-31T01:14:22.176Z,53.39453
2022-08-31T01:19:25.406Z,53.77637
2022-08-31T01:24:21.318Z,53.61621
2022-08-31T01:29:19.635Z,53.38672
2022-08-31T01:34:21.622Z,53.73633
2022-08-31T01:39:19.532Z,53.7666
2022-08-31T01:44:21.742Z,53.74316
2022-08-31T01:49:20.655Z,53.77441
2022-08-31T01:54:20.129Z,53.70605
2022-08-31T01:59:23.944Z,54.04297
2022-08-31T02:04:19.942Z,53.76855
2022-08-31T02:09:20.485Z,53.89355
2022-08-31T02:14:19.795Z,53.74414
2022-08-31T02:19:19.788Z,53.71777
2022-08-31T02:24:22.514Z,53.81836
2022-08-31T02:29:19.627Z,53.84375
2022-08-31T02:34:20.066Z,53.63574
2022-08-31T02:39:19.536Z,53.57422
2022-08-31T02:44:20.001Z,53.6709
2022-08-31T02:49:21.371Z,53.7334
2022-08-31T02:54:19.955Z,53.60449
2022-08-31T02:59:20.497Z,53.53027
2022-08-31T03:04:19.482Z,53.51465
2022-08-31T03:09:19.766Z,53.45313
2022-08-31T03:14:22.636Z,53.53613
2022-08-31T03:19:19.816Z,53.39355
2022-08-31T03:24:22.197Z,53.47461
2022-08-31T03:29:19.671Z,53.53711
2022-08-31T03:34:19.483Z,53.43848
2022-08-31T03:39:19.501Z,53.28906
2022-08-31T03:44:23.576Z,53.03418
2022-08-31T03:49:20.437Z,52.91016
2022-08-31T03:54:19.679Z,52.95996
2022-08-31T03:59:20.085Z,52.69629
2022-08-31T04:04:19.798Z,52.66699
2022-08-31T04:09:19.729Z,52.4668
2022-08-31T04:14:23.169Z,52.37012
2022-08-31T04:19:23.100Z,52.4043
2022-08-31T04:24:20.662Z,52.35645
2022-08-31T04:29:19.689Z,52.29688
2022-08-31T04:34:19.538Z,52.12305
2022-08-31T04:39:24.106Z,52.16211
2022-08-31T04:44:20.318Z,52.18262
2022-08-31T04:49:22.320Z,52.15234
2022-08-31T04:54:19.699Z,52.09277
2022-08-31T04:59:28.546Z,52.2002
2022-08-31T05:04:23.969Z,52.20703
2022-08-31T05:09:21.018Z,52.12598
2022-08-31T05:14:25.164Z,52.14844
2022-08-31T05:19:21.090Z,52.23535
2022-08-31T05:24:21.453Z,52.19043
2022-08-31T05:29:30.854Z,52.16699
2022-08-31T05:34:20.652Z,52.14355
2022-08-31T05:39:22.111Z,52.38281
2022-08-31T05:44:28.838Z,52.54297
2022-08-31T05:49:21.679Z,52.64648
2022-08-31T05:54:21.419Z,53.12988
2022-08-31T05:59:21.556Z,52.93359
2022-08-31T06:04:19.419Z,52.20508
2022-08-31T06:09:19.613Z,51.30469
2022-08-31T06:14:21.563Z,50.48926
2022-08-31T06:19:19.896Z,49.86914
2022-08-31T06:24:19.495Z,49.2832
2022-08-31T06:29:20.549Z,48.91211
2022-08-31T06:34:20.922Z,48.46484
2022-08-31T06:39:20.239Z,47.89258
2022-08-31T06:44:20.902Z,47.64355
2022-08-31T06:49:21.523Z,47.47949
2022-08-31T06:54:29.323Z,47.19238
2022-08-31T06:59:21.945Z,46.81152
2022-08-31T07:04:19.619Z,46.52344
2022-08-31T07:09:20.105Z,46.2832
2022-08-31T07:14:21.869Z,46.21973
2022-08-31T07:19:20.293Z,45.85352
2022-08-31T07:24:22.998Z,45.39551
2022-08-31T07:29:22.922Z,45.39063
2022-08-31T07:34:21.093Z,45.14941
2022-08-31T07:39:34.185Z,44.86621
2022-08-31T07:44:20.281Z,44.70996
2022-08-31T07:49:23.664Z,44.33594
2022-08-31T07:59:20.053Z,43.74316
2022-08-31T08:04:29.566Z,43.49805
2022-08-31T08:09:25.007Z,43.08203
2022-08-31T08:14:20.732Z,42.6582
2022-08-31T08:19:21.975Z,42.22656
2022-08-31T08:24:22.774Z,42.11523
2022-08-31T08:29:20.332Z,41.71777
2022-08-31T08:34:19.850Z,41.32715
2022-08-31T08:39:20.697Z,41.00879
2022-08-31T08:44:24.013Z,40.7373
2022-08-31T08:49:35.527Z,40.61035
2022-08-31T08:54:23.404Z,40.49023
2022-08-31T08:59:20.568Z,40.02539
2022-08-31T09:04:23.310Z,39.80176
2022-08-31T09:09:41.262Z,39.38281
2022-08-31T09:14:32.404Z,38.93262
2022-08-31T09:19:21.671Z,38.7793
2022-08-31T09:24:21.090Z,38.54395
2022-08-31T09:29:24.630Z,38.65332
2022-08-31T09:34:33.555Z,38.25684
2022-08-31T09:39:24.778Z,37.77539
2022-08-31T09:44:37.732Z,37.49609
2022-08-31T09:49:24.654Z,36.96094
2022-08-31T09:54:42.090Z,36.18555
2022-08-31T09:59:30.061Z,35.84961
2022-08-31T10:04:32.354Z,35.2998
2022-08-31T10:09:29.183Z,34.20898
2022-08-31T10:14:24.155Z,34.09668
2022-08-31T10:19:28.359Z,33.78613
2022-08-31T10:24:30.377Z,33.44043
2022-08-31T10:29:24.712Z,32.86426
2022-08-31T10:34:33.506Z,32.26953
2022-08-31T10:39:29.267Z,32.14063
2022-08-31T10:44:25.835Z,31.68359
2022-08-31T10:49:22.757Z,31.01172
2022-08-31T10:54:29.022Z,31.43652
2022-08-31T10:59:32.438Z,31.24512
2022-08-31T11:04:44.652Z,31.35254
2022-08-31T11:09:23.105Z,30.99609
2022-08-31T11:14:38.814Z,31.28711
2022-08-31T11:19:32.413Z,30.8623
2022-08-31T11:24:37.137Z,30.7998
2022-08-31T11:29:29.017Z,30.74805
2022-08-31T11:34:32.510Z,30.625
2022-08-31T11:39:42.268Z,30.60352
2022-08-31T11:44:39.069Z,30.08789
2022-08-31T11:49:34.800Z,30.0957
2022-08-31T11:54:35.276Z,29.93359
2022-08-31T11:59:26.938Z,29.75879
2022-08-31T12:04:52.363Z,29.80371
2022-08-31T12:09:34.555Z,29.94629
2022-08-31T12:14:23.032Z,30.62598
2022-08-31T12:19:43.886Z,30.51172
2022-08-31T12:24:28.228Z,29.60254
2022-08-31T12:29:28.399Z,28.91211
2022-08-31T12:34:24.703Z,29.20215
2022-08-31T12:39:27.647Z,29.38574
2022-08-31T12:44:23.320Z,29.20117
2022-08-31T12:49:30.707Z,29.2627
2022-08-31T12:54:30.937Z,29.00488
2022-08-31T12:59:40.702Z,29.00195
2022-08-31T13:04:24.080Z,29.21484
2022-08-31T13:09:30.774Z,29.05664
2022-08-31T13:14:25.036Z,28.42188
2022-08-31T13:19:26.374Z,27.74609
2022-08-31T13:24:19.336Z,28.18457
2022-08-31T13:29:20.206Z,28.2959
2022-08-31T13:34:23.417Z,27.5791
2022-08-31T13:39:25.788Z,27.4707
2022-08-31T13:44:27.567Z,27.79883
2022-08-31T13:49:38.165Z,27.62109
2022-08-31T13:54:32.327Z,28.0625
2022-08-31T13:59:37.792Z,27.38086
2022-08-31T14:04:43.265Z,27.73242
2022-08-31T14:09:21.498Z,27.74121
2022-08-31T14:14:26.917Z,27.56348
2022-08-31T14:19:32.619Z,27.54004
2022-08-31T14:24:20.658Z,27.21875
2022-08-31T14:29:22.523Z,27.23438
2022-08-31T14:34:23.909Z,27.66895
2022-08-31T14:39:19.377Z,27.37305
2022-08-31T14:44:22.966Z,27.22949
2022-08-31T14:49:19.963Z,27.59375
2022-08-31T14:54:21.667Z,27.41992
2022-08-31T14:59:21.674Z,27.38379
2022-08-31T15:04:22.558Z,27.73438
2022-08-31T15:09:21.509Z,27.44629
2022-08-31T15:14:22.554Z,27.74707
2022-08-31T15:19:22.963Z,27.9834
2022-08-31T15:24:24.755Z,27.75879
2022-08-31T15:29:19.510Z,27.87988
2022-08-31T15:34:26.498Z,28.12109
2022-08-31T15:39:21.880Z,28.04102
2022-08-31T15:44:22.001Z,27.55664
2022-08-31T15:49:19.497Z,27.77148
2022-08-31T15:54:22.858Z,28.03613
2022-08-31T15:59:22.577Z,28.09863
2022-08-31T16:04:28.431Z,28.08789
2022-08-31T16:09:20.366Z,28.31445
2022-08-31T16:14:20.175Z,28.48242
2022-08-31T16:19:34.620Z,28.37012
2022-08-31T16:24:21.842Z,28.71289
2022-08-31T16:29:25.900Z,28.72852
2022-08-31T16:34:31.258Z,28.80957
2022-08-31T16:39:19.410Z,28.90527
2022-08-31T16:44:20.750Z,29.06836
2022-08-31T16:49:41.039Z,29.19531
2022-08-31T16:54:19.968Z,29.48926
2022-08-31T16:59:19.589Z,29.60254
2022-08-31T17:04:52.143Z,30.16016
2022-08-31T17:09:22.710Z,30.61621
2022-08-31T17:14:20.629Z,31
2022-08-31T17:19:20.354Z,31.53906
2022-08-31T17:24:21.381Z,31.76758
2022-08-31T17:29:20.008Z,32.23828
2022-08-31T17:34:21.109Z,32.63965
2022-08-31T17:39:23.934Z,33.1084
2022-08-31T17:44:20.194Z,33.53809
2022-08-31T17:49:22.609Z,33.91016
2022-08-31T17:54:22.712Z,34.25879
2022-08-31T17:59:21.028Z,36.10254
2022-08-31T18:04:19.826Z,35.86426
2022-08-31T18:09:22.199Z,36.00781
2022-08-31T18:14:19.816Z,36.80176
2022-08-31T18:19:27.841Z,37.02051
2022-08-31T18:24:19.322Z,38.00977
2022-08-31T18:29:23.830Z,38.35645
2022-08-31T18:34:21.886Z,39.06055
2022-08-31T18:39:50.006Z,39.34863
2022-08-31T18:44:30.843Z,39.62891
2022-08-31T18:49:19.602Z,40.2041
2022-08-31T18:54:24.797Z,40.65527
2022-08-31T18:59:19.857Z,41.16309
2022-08-31T19:04:21.957Z,41.69531
2022-08-31T19:09:23.893Z,42.26172
2022-08-31T19:14:19.749Z,42.37109
2022-08-31T19:19:22.451Z,43.08594
2022-08-31T19:24:22.229Z,43.48145
2022-08-31T19:29:23.880Z,44.06152
2022-08-31T19:34:20.664Z,44.37891
2022-08-31T19:39:22.957Z,44.53711
2022-08-31T19:44:19.714Z,45.01465
2022-08-31T19:49:22.544Z,45.67676
2022-08-31T19:54:19.459Z,46.00684
2022-08-31T19:59:23.725Z,46.34082
2022-08-31T20:04:21.274Z,46.99219
2022-08-31T20:09:21.070Z,47.41895
2022-08-31T20:14:21.234Z,47.56543
2022-08-31T20:19:24.437Z,48.82129
2022-08-31T20:24:20.466Z,48.90332
2022-08-31T20:29:19.853Z,48.92578
2022-08-31T20:34:22.071Z,49.16992
2022-08-31T20:39:20.674Z,49.78516
2022-08-31T20:44:20.404Z,49.67383
2022-08-31T20:49:28.646Z,49.92871
2022-08-31T20:54:19.552Z,50.37598
2022-08-31T20:59:22.698Z,50.3457
2022-08-31T21:04:19.365Z,51.03418
2022-08-31T21:09:19.533Z,50.87695
2022-08-31T21:14:20.075Z,51.31641
2022-08-31T21:19:22.737Z,51.17285
2022-08-31T21:24:20.375Z,51.60742
2022-08-31T21:29:21.241Z,51.79199
2022-08-31T21:34:24.600Z,51.85156
2022-08-31T21:39:20.153Z,51.74512
2022-08-31T21:44:20.547Z,51.83105
2022-08-31T21:49:21.045Z,51.74219
2022-08-31T21:54:21.466Z,51.69238
2022-08-31T21:59:20.344Z,52.10547
2022-08-31T22:04:20.927Z,52.40625
2022-08-31T22:09:22.236Z,52.1416
2022-08-31T22:14:20.625Z,52.3418
2022-08-31T22:19:22.988Z,52.65137
2022-08-31T22:24:27.542Z,52.71582
2022-08-31T22:29:21.949Z,53.36719
2022-08-31T22:34:20.740Z,53.10254
2022-08-31T22:39:19.960Z,52.9502
2022-08-31T22:44:20.105Z,53.45703
2022-08-31T22:49:19.421Z,53.18164
2022-08-31T22:54:20.598Z,53.14453
2022-08-31T22:59:24.424Z,53.11914
2022-08-31T23:04:23.046Z,53.42773
2022-08-31T23:09:20.621Z,53.62695
2022-08-31T23:14:20.728Z,53.7832
2022-08-31T23:19:21.555Z,53.39355
2022-08-31T23:24:20.861Z,53.75195
2022-08-31T23:29:19.769Z,53.62012
2022-08-31T23:34:22.428Z,53.95605
2022-08-31T23:39:19.964Z,53.92871
2022-08-31T23:44:19.310Z,53.94727
2022-08-31T23:49:23.093Z,53.76172
2022-08-31T23:54:20.466Z,53.97168
2022-08-31T23:59:20.043Z,54.02246
